createdAt,value
2022-10-06T00:00:39.489Z,100397.34
2022-10-06T00:03:06.853Z,100393.84
2022-10-06T00:05:34.284Z,100387.66
2022-10-06T00:08:03.407Z,100407.22
2022-10-06T00:10:30.957Z,100411.47
2022-10-06T00:12:58.683Z,100417.66
2022-10-06T00:15:28.264Z,100415.97
2022-10-06T00:17:56.608Z,100415.31
2022-10-06T00:20:24.762Z,100412.75
2022-10-06T00:22:52.402Z,100424.72
2022-10-06T00:25:22.569Z,100426.38
2022-10-06T00:27:52.121Z,100444.13
2022-10-06T00:30:21.265Z,100446.38
2022-10-06T00:32:53.414Z,100445.88
2022-10-06T00:35:20.961Z,100446.69
2022-10-06T00:37:48.470Z,100450.34
2022-10-06T00:40:16.618Z,100445.00
2022-10-06T00:42:53.854Z,100447.13
2022-10-06T00:45:25.622Z,100456.25
2022-10-06T00:47:54.532Z,100456.44
2022-10-06T00:50:22.177Z,100473.41
2022-10-06T00:52:50.009Z,100468.59
2022-10-06T00:55:20.098Z,100468.38
2022-10-06T00:57:48.655Z,100471.13
2022-10-06T01:00:17.601Z,100474.50
2022-10-06T01:02:48.164Z,100461.44
2022-10-06T01:05:21.010Z,100475.09
2022-10-06T01:07:48.633Z,100478.13
2022-10-06T01:10:15.974Z,100483.78
2022-10-06T01:12:43.560Z,100481.09
2022-10-06T01:15:11.587Z,100489.28
2022-10-06T01:17:43.543Z,100495.06
2022-10-06T01:20:13.174Z,100500.56
2022-10-06T01:22:43.965Z,100507.56
2022-10-06T01:25:13.994Z,100501.78
2022-10-06T01:27:46.593Z,100513.66
2022-10-06T01:30:15.921Z,100513.81
2022-10-06T01:32:44.026Z,100527.44
2022-10-06T01:35:12.101Z,100528.03
2022-10-06T01:37:41.993Z,100535.28
2022-10-06T01:40:10.701Z,100522.84
2022-10-06T01:42:38.753Z,100527.00
2022-10-06T01:45:07.426Z,100535.06
2022-10-06T01:47:35.757Z,100533.41
2022-10-06T01:50:07.337Z,100542.41
2022-10-06T01:52:36.078Z,100543.94
2022-10-06T01:55:05.441Z,100538.53
2022-10-06T01:57:33.554Z,100548.41
2022-10-06T02:00:02.005Z,100556.81
2022-10-06T02:02:40.533Z,100560.28
2022-10-06T02:05:08.617Z,100570.44
2022-10-06T02:07:39.090Z,100558.59
2022-10-06T02:10:08.824Z,100565.75
2022-10-06T02:12:36.457Z,100574.28
2022-10-06T02:15:04.709Z,100586.66
2022-10-06T02:17:32.113Z,100588.84
2022-10-06T02:19:59.667Z,100593.31
2022-10-06T02:22:27.661Z,100602.19
2022-10-06T02:24:55.004Z,100612.66
2022-10-06T02:27:23.706Z,100606.03
2022-10-06T02:29:51.200Z,100606.28
2022-10-06T02:32:18.716Z,100622.63
2022-10-06T02:34:46.265Z,100614.28
2022-10-06T02:37:15.717Z,100629.50
2022-10-06T02:39:43.125Z,100631.00
2022-10-06T02:42:11.102Z,100641.78
2022-10-06T02:44:41.311Z,100646.19
2022-10-06T02:47:12.441Z,100644.25
2022-10-06T02:49:39.969Z,100647.16
2022-10-06T02:52:07.902Z,100643.66
2022-10-06T02:54:36.665Z,100658.84
2022-10-06T02:57:04.193Z,100658.81
2022-10-06T02:59:33.913Z,100670.34
2022-10-06T03:02:03.054Z,100666.31
2022-10-06T03:04:30.966Z,100661.69
2022-10-06T03:06:58.509Z,100678.97
2022-10-06T03:09:28.861Z,100676.78
2022-10-06T03:11:57.043Z,100686.00
2022-10-06T03:14:34.109Z,100694.47
2022-10-06T03:17:02.820Z,100690.78
2022-10-06T03:19:31.049Z,100691.19
2022-10-06T03:21:59.259Z,100698.00
2022-10-06T03:24:35.887Z,100700.59
2022-10-06T03:27:03.262Z,100698.91
2022-10-06T03:29:31.048Z,100704.91
2022-10-06T03:31:58.768Z,100710.41
2022-10-06T03:34:27.920Z,100720.75
2022-10-06T03:36:57.225Z,100727.25
2022-10-06T03:39:26.722Z,100726.09
2022-10-06T03:41:54.092Z,100733.25
2022-10-06T03:44:22.736Z,100734.75
2022-10-06T03:46:51.119Z,100736.25
2022-10-06T03:49:19.697Z,100739.94
2022-10-06T03:51:49.495Z,100737.75
2022-10-06T03:54:21.601Z,100751.28
2022-10-06T03:56:50.916Z,100756.97
2022-10-06T03:59:19.412Z,100754.13
2022-10-06T04:01:49.309Z,100758.28
2022-10-06T04:04:25.001Z,100760.13
2022-10-06T04:06:59.151Z,100772.09
2022-10-06T04:09:26.846Z,100768.13
2022-10-06T04:11:54.239Z,100773.59
2022-10-06T04:14:21.727Z,100775.94
2022-10-06T04:16:50.246Z,100785.91
2022-10-06T04:19:32.929Z,100799.53
2022-10-06T04:22:01.975Z,100793.03
2022-10-06T04:24:30.498Z,100800.72
2022-10-06T04:27:18.737Z,100799.44
2022-10-06T04:29:52.900Z,100802.03
2022-10-06T04:32:20.420Z,100811.16
2022-10-06T04:34:47.929Z,100808.44
2022-10-06T04:37:17.121Z,100811.44
2022-10-06T04:39:45.289Z,100827.44
2022-10-06T04:42:13.321Z,100834.97
2022-10-06T04:44:40.798Z,100836.09
2022-10-06T04:47:08.187Z,100837.84
2022-10-06T04:49:35.700Z,100842.53
2022-10-06T04:52:03.793Z,100842.66
2022-10-06T04:54:34.893Z,100846.44
2022-10-06T04:57:05.742Z,100844.78
2022-10-06T04:59:50.736Z,100854.06
2022-10-06T05:02:19.056Z,100855.00
2022-10-06T05:04:47.373Z,100878.06
2022-10-06T05:07:16.489Z,100882.06
2022-10-06T05:09:45.266Z,100881.22
2022-10-06T05:12:12.686Z,100884.44
2022-10-06T05:14:40.981Z,100898.56
2022-10-06T05:17:08.850Z,100902.84
2022-10-06T05:19:37.581Z,100904.16
2022-10-06T05:22:05.572Z,100909.03
2022-10-06T05:24:33.747Z,100910.09
2022-10-06T05:27:03.809Z,100917.25
2022-10-06T05:29:31.890Z,100930.84
2022-10-06T05:31:59.311Z,100928.25
2022-10-06T05:34:28.629Z,100929.63
2022-10-06T05:36:56.304Z,100937.97
2022-10-06T05:39:23.664Z,100939.09
2022-10-06T05:41:55.525Z,100941.22
2022-10-06T05:44:24.200Z,100942.53
2022-10-06T05:46:51.585Z,100945.13
2022-10-06T05:49:20.032Z,100952.56
2022-10-06T05:51:53.018Z,100957.22
2022-10-06T05:54:25.162Z,100965.41
2022-10-06T05:56:52.594Z,100970.97
2022-10-06T05:59:19.974Z,100975.38
2022-10-06T06:01:49.184Z,100978.81
2022-10-06T06:04:25.548Z,100988.69
2022-10-06T06:06:56.346Z,100986.72
2022-10-06T06:09:26.234Z,100989.69
2022-10-06T06:11:55.390Z,100994.47
2022-10-06T06:14:59.261Z,101007.31
2022-10-06T06:17:33.572Z,101010.25
2022-10-06T06:20:03.205Z,101009.81
2022-10-06T06:22:30.724Z,101022.84
2022-10-06T06:24:58.951Z,101018.19
2022-10-06T06:27:26.328Z,101028.44
2022-10-06T06:29:54.077Z,101035.00
2022-10-06T06:32:21.415Z,101021.63
2022-10-06T06:34:52.677Z,101036.53
2022-10-06T06:37:20.256Z,101036.91
2022-10-06T06:39:48.505Z,101047.78
2022-10-06T06:42:16.100Z,101045.56
2022-10-06T06:44:49.084Z,101045.97
2022-10-06T06:47:26.706Z,101057.34
2022-10-06T06:49:55.788Z,101049.13
2022-10-06T06:52:25.972Z,101066.94
2022-10-06T06:54:53.389Z,101069.75
2022-10-06T06:57:20.809Z,101074.25
2022-10-06T06:59:50.915Z,101079.28
2022-10-06T07:02:19.346Z,101079.97
2022-10-06T07:04:48.328Z,101076.84
2022-10-06T07:07:19.442Z,101093.66
2022-10-06T07:09:46.825Z,101096.78
2022-10-06T07:12:16.260Z,101098.81
2022-10-06T07:15:08.339Z,101095.75
2022-10-06T07:17:57.532Z,101107.72
2022-10-06T07:20:42.837Z,101111.41
2022-10-06T07:23:34.602Z,101123.41
2022-10-06T07:26:03.344Z,101122.91
2022-10-06T07:28:31.739Z,101124.22
2022-10-06T07:31:00.559Z,101139.19
2022-10-06T07:33:32.245Z,101135.47
2022-10-06T07:36:01.144Z,101149.16
2022-10-06T07:38:31.242Z,101151.88
2022-10-06T07:41:19.275Z,101148.53
2022-10-06T07:43:53.861Z,101155.28
2022-10-06T07:46:22.874Z,101161.34
2022-10-06T07:49:04.765Z,101169.25
2022-10-06T07:51:32.675Z,101165.59
2022-10-06T07:54:02.166Z,101176.31
2022-10-06T07:56:51.133Z,101174.59
2022-10-06T07:59:21.633Z,101180.72
2022-10-06T08:01:51.066Z,101179.13
2022-10-06T08:04:18.538Z,101184.44
2022-10-06T08:06:47.553Z,101191.00
2022-10-06T08:09:16.411Z,101191.91
2022-10-06T08:11:44.958Z,101191.28
2022-10-06T08:14:14.898Z,101193.47
2022-10-06T08:16:42.266Z,101202.34
2022-10-06T08:19:11.449Z,101196.78
2022-10-06T08:21:39.521Z,101209.53
2022-10-06T08:24:07.227Z,101203.25
2022-10-06T08:26:35.984Z,101207.88
2022-10-06T08:29:04.313Z,101208.53
2022-10-06T08:31:32.856Z,101217.69
2022-10-06T08:34:01.259Z,101220.44
2022-10-06T08:36:31.938Z,101227.09
2022-10-06T08:39:00.110Z,101232.13
2022-10-06T08:41:29.220Z,101224.34
2022-10-06T08:44:01.615Z,101227.44
2022-10-06T08:46:33.271Z,101223.97
2022-10-06T08:49:02.297Z,101238.81
2022-10-06T08:51:45.721Z,101231.16
2022-10-06T08:54:16.325Z,101239.44
2022-10-06T08:56:51.827Z,101245.22
2022-10-06T08:59:20.823Z,101254.56
2022-10-06T09:01:49.540Z,101258.91
2022-10-06T09:04:25.988Z,101245.84
2022-10-06T09:07:00.587Z,101258.75
2022-10-06T09:09:42.474Z,101253.09
2022-10-06T09:12:15.311Z,101257.38
2022-10-06T09:14:47.985Z,101261.06
2022-10-06T09:17:18.793Z,101253.84
2022-10-06T09:19:47.624Z,101260.97
2022-10-06T09:22:19.550Z,101260.94
2022-10-06T09:24:50.314Z,101254.34
2022-10-06T09:27:21.042Z,101260.41
2022-10-06T09:29:50.706Z,101263.75
2022-10-06T09:32:18.538Z,101272.22
2022-10-06T09:34:51.190Z,101276.78
2022-10-06T09:37:18.918Z,101266.66
2022-10-06T09:39:49.260Z,101271.03
2022-10-06T09:42:20.466Z,101278.34
2022-10-06T09:44:57.839Z,101282.75
2022-10-06T09:47:40.147Z,101285.22
2022-10-06T09:50:22.578Z,101277.88
2022-10-06T09:53:16.070Z,101286.34
2022-10-06T09:55:55.181Z,101290.22
2022-10-06T09:58:24.968Z,101291.41
2022-10-06T10:00:57.926Z,101291.00
2022-10-06T10:03:26.993Z,101295.16
2022-10-06T10:05:55.772Z,101297.47
2022-10-06T10:08:25.639Z,101304.53
2022-10-06T10:11:33.017Z,101300.41
2022-10-06T10:14:00.959Z,101302.50
2022-10-06T10:16:34.492Z,101306.91
2022-10-06T10:19:02.920Z,101308.41
2022-10-06T10:21:33.219Z,101314.94
2022-10-06T10:24:02.284Z,101307.09
2022-10-06T10:26:46.299Z,101305.19
2022-10-06T10:29:33.739Z,101309.13
2022-10-06T10:32:12.741Z,101310.88
2022-10-06T10:34:52.541Z,101302.72
2022-10-06T10:37:24.203Z,101305.81
2022-10-06T10:39:56.750Z,101304.06
2022-10-06T10:42:28.572Z,101309.34
2022-10-06T10:44:59.098Z,101319.66
2022-10-06T10:47:31.472Z,101314.44
2022-10-06T10:50:03.446Z,101316.59
2022-10-06T10:52:34.705Z,101315.88
2022-10-06T10:55:11.526Z,101309.22
2022-10-06T10:57:41.233Z,101316.09
2022-10-06T11:00:13.068Z,101326.38
2022-10-06T11:02:41.917Z,101325.31
2022-10-06T11:05:18.083Z,101320.84
2022-10-06T11:07:51.164Z,101323.25
2022-10-06T11:10:21.908Z,101323.28
2022-10-06T11:13:02.270Z,101315.59
2022-10-06T11:15:43.875Z,101323.31
2022-10-06T11:18:21.366Z,101322.28
2022-10-06T11:20:51.757Z,101322.91
2022-10-06T11:23:41.568Z,101327.41
2022-10-06T11:26:18.074Z,101330.84
2022-10-06T11:28:49.766Z,101332.88
2022-10-06T11:31:24.215Z,101333.56
2022-10-06T11:33:54.676Z,101339.44
2022-10-06T11:36:35.540Z,101329.28
2022-10-06T11:39:09.003Z,101323.16
2022-10-06T11:41:39.889Z,101315.72
2022-10-06T11:44:13.501Z,101319.88
2022-10-06T11:46:45.242Z,101316.41
2022-10-06T11:49:44.805Z,101318.09
2022-10-06T11:52:36.747Z,101320.56
2022-10-06T11:55:11.491Z,101310.31
2022-10-06T11:58:12.560Z,101317.16
2022-10-06T12:00:50.739Z,101314.44
2022-10-06T12:03:55.559Z,101317.25
2022-10-06T12:06:58.481Z,101309.06
2022-10-06T12:09:51.134Z,101308.53
2022-10-06T12:13:06.655Z,101314.22
2022-10-06T12:18:51.039Z,101314.72
2022-10-06T12:21:33.615Z,101306.31
2022-10-06T12:24:06.684Z,101309.09
2022-10-06T12:26:53.251Z,101311.81
2022-10-06T12:29:35.090Z,101303.38
2022-10-06T12:32:14.261Z,101305.44
2022-10-06T12:34:43.831Z,101310.84
2022-10-06T12:37:22.810Z,101305.09
2022-10-06T12:39:50.261Z,101309.03
2022-10-06T12:42:21.353Z,101313.63
2022-10-06T12:44:51.013Z,101313.81
2022-10-06T12:47:22.662Z,101312.28
2022-10-06T12:49:53.853Z,101310.00
2022-10-06T12:52:38.131Z,101311.75
2022-10-06T12:55:17.314Z,101312.97
2022-10-06T12:57:50.693Z,101300.50
2022-10-06T13:00:31.466Z,101290.06
2022-10-06T13:03:00.975Z,101291.47
2022-10-06T13:05:28.766Z,101287.97
2022-10-06T13:07:58.155Z,101292.13
2022-10-06T13:10:26.121Z,101291.63
2022-10-06T13:12:57.964Z,101284.66
2022-10-06T13:15:29.940Z,101290.38
2022-10-06T13:18:00.026Z,101287.81
2022-10-06T13:20:39.539Z,101291.50
2022-10-06T13:23:22.956Z,101289.41
2022-10-06T13:25:53.472Z,101285.09
2022-10-06T13:28:31.052Z,101284.34
2022-10-06T13:33:30.593Z,101294.03
2022-10-06T13:35:58.800Z,101292.97
2022-10-06T13:38:26.351Z,101287.03
2022-10-06T13:41:08.115Z,101293.53
2022-10-06T13:43:44.427Z,101289.38
2022-10-06T13:46:13.793Z,101281.34
2022-10-06T13:48:45.606Z,101293.78
2022-10-06T13:51:17.537Z,101289.53
2022-10-06T13:53:46.553Z,101281.03
2022-10-06T13:56:26.597Z,101288.81
2022-10-06T13:58:56.233Z,101300.03
2022-10-06T14:01:30.557Z,101295.09
2022-10-06T14:04:13.902Z,101286.19
2022-10-06T14:06:48.649Z,101302.75
2022-10-06T14:09:22.399Z,101290.44
2022-10-06T14:11:50.159Z,101304.41
2022-10-06T14:14:19.523Z,101295.38
2022-10-06T14:16:49.102Z,101299.56
2022-10-06T14:19:36.517Z,101294.09
2022-10-06T14:22:05.418Z,101284.25
2022-10-06T14:24:37.039Z,101283.66
2022-10-06T14:27:06.502Z,101293.03
2022-10-06T14:29:37.764Z,101301.50
2022-10-06T14:32:10.591Z,101307.03
2022-10-06T14:34:38.893Z,101300.88
2022-10-06T14:37:06.317Z,101302.34
2022-10-06T14:39:33.726Z,101298.53
2022-10-06T14:42:01.208Z,101299.47
2022-10-06T14:44:28.666Z,101297.19
2022-10-06T14:46:57.737Z,101297.75
2022-10-06T14:49:26.146Z,101305.91
2022-10-06T14:51:55.594Z,101296.41
2022-10-06T14:54:23.529Z,101295.41
2022-10-06T14:56:53.111Z,101307.53
2022-10-06T14:59:21.769Z,101302.56
2022-10-06T15:01:49.754Z,101302.91
2022-10-06T15:04:20.107Z,101301.09
2022-10-06T15:07:05.890Z,101296.00
2022-10-06T15:09:33.402Z,101301.38
2022-10-06T15:12:01.055Z,101301.28
2022-10-06T15:14:29.492Z,101292.72
2022-10-06T15:16:59.029Z,101294.09
2022-10-06T15:19:27.994Z,101296.44
2022-10-06T15:21:56.173Z,101306.63
2022-10-06T15:24:23.689Z,101299.81
2022-10-06T15:27:08.844Z,101295.47
2022-10-06T15:29:36.304Z,101296.41
2022-10-06T15:32:05.990Z,101296.06
2022-10-06T15:34:36.915Z,101293.31
2022-10-06T15:37:04.910Z,101298.06
2022-10-06T15:39:35.386Z,101299.63
2022-10-06T15:42:03.142Z,101302.22
2022-10-06T15:44:33.811Z,101300.53
2022-10-06T15:47:01.450Z,101303.34
2022-10-06T15:49:30.301Z,101303.94
2022-10-06T15:52:02.544Z,101297.09
2022-10-06T15:54:33.529Z,101304.09
2022-10-06T15:57:02.489Z,101313.59
2022-10-06T15:59:33.973Z,101308.66
2022-10-06T16:02:04.274Z,101307.31
2022-10-06T16:04:38.737Z,101312.56
2022-10-06T16:07:08.204Z,101319.09
2022-10-06T16:09:42.034Z,101313.38
2022-10-06T16:12:12.371Z,101311.47
2022-10-06T16:14:39.930Z,101315.13
2022-10-06T16:17:09.333Z,101314.34
2022-10-06T16:19:37.529Z,101311.19
2022-10-06T16:22:07.638Z,101310.16
2022-10-06T16:24:37.950Z,101311.50
2022-10-06T16:27:05.902Z,101317.72
2022-10-06T16:29:33.616Z,101311.97
2022-10-06T16:32:01.025Z,101314.63
2022-10-06T16:34:30.140Z,101315.31
2022-10-06T16:36:57.614Z,101318.50
2022-10-06T16:39:26.373Z,101306.53
2022-10-06T16:41:53.985Z,101309.03
2022-10-06T16:44:21.397Z,101317.75
2022-10-06T16:46:48.938Z,101316.72
2022-10-06T16:49:16.431Z,101317.88
2022-10-06T16:51:45.676Z,101317.09
2022-10-06T16:54:17.091Z,101326.84
2022-10-06T16:56:47.866Z,101323.91
2022-10-06T16:59:16.966Z,101318.63
2022-10-06T17:01:44.556Z,101320.94
2022-10-06T17:04:13.580Z,101327.72
2022-10-06T17:06:43.282Z,101323.03
2022-10-06T17:09:14.072Z,101319.47
2022-10-06T17:11:42.559Z,101330.63
2022-10-06T17:14:12.014Z,101332.16
2022-10-06T17:16:41.342Z,101334.34
2022-10-06T17:19:10.101Z,101334.81
2022-10-06T17:21:46.214Z,101332.38
2022-10-06T17:24:15.091Z,101327.06
2022-10-06T17:26:43.703Z,101344.31
2022-10-06T17:29:15.903Z,101338.13
2022-10-06T17:31:44.868Z,101340.22
2022-10-06T17:34:16.956Z,101336.50
2022-10-06T17:36:50.571Z,101341.56
2022-10-06T17:39:19.566Z,101345.69
2022-10-06T17:41:47.645Z,101333.78
2022-10-06T17:44:22.314Z,101338.16
2022-10-06T17:46:51.066Z,101345.13
2022-10-06T17:49:21.016Z,101346.03
2022-10-06T17:51:49.211Z,101347.06
2022-10-06T17:54:19.666Z,101346.75
2022-10-06T17:56:48.060Z,101341.53
2022-10-06T17:59:18.346Z,101334.75
2022-10-06T18:01:45.831Z,101345.03
2022-10-06T18:04:15.887Z,101342.63
2022-10-06T18:06:44.401Z,101348.81
2022-10-06T18:09:13.203Z,101351.66
2022-10-06T18:11:43.271Z,101342.56
2022-10-06T18:14:12.330Z,101338.59
2022-10-06T18:16:42.838Z,101342.34
2022-10-06T18:19:12.243Z,101341.69
2022-10-06T18:21:41.005Z,101341.84
2022-10-06T18:24:11.863Z,101350.41
2022-10-06T18:26:41.764Z,101346.06
2022-10-06T18:29:09.986Z,101338.16
2022-10-06T18:31:38.550Z,101336.63
2022-10-06T18:36:55.196Z,101333.72
2022-10-06T18:39:22.587Z,101334.59
2022-10-06T18:41:50.979Z,101327.56
2022-10-06T18:44:38.436Z,101324.06
2022-10-06T18:47:23.218Z,101327.88
2022-10-06T18:49:53.219Z,101329.56
2022-10-06T18:52:21.571Z,101323.03
2022-10-06T18:54:49.055Z,101328.75
2022-10-06T18:57:16.469Z,101325.75
2022-10-06T18:59:44.282Z,101328.94
2022-10-06T19:02:12.030Z,101335.63
2022-10-06T19:04:40.005Z,101337.91
2022-10-06T19:07:09.136Z,101336.06
2022-10-06T19:09:36.525Z,101329.59
2022-10-06T19:12:04.078Z,101335.94
2022-10-06T19:14:35.059Z,101339.00
2022-10-06T19:17:05.731Z,101345.19
2022-10-06T19:19:33.913Z,101352.16
2022-10-06T19:22:03.303Z,101354.69
2022-10-06T19:24:35.619Z,101362.00
2022-10-06T19:27:12.062Z,101358.19
2022-10-06T19:29:42.317Z,101358.19
2022-10-06T19:32:09.681Z,101354.13
2022-10-06T19:34:38.181Z,101343.94
2022-10-06T19:37:06.010Z,101354.69
2022-10-06T19:39:39.550Z,101362.00
2022-10-06T19:42:25.147Z,101368.63
2022-10-06T19:44:53.125Z,101364.13
2022-10-06T19:47:20.566Z,101359.94
2022-10-06T19:49:47.994Z,101358.69
2022-10-06T19:52:16.622Z,101363.56
2022-10-06T19:54:46.034Z,101358.94
2022-10-06T19:57:13.593Z,101364.13
2022-10-06T19:59:42.177Z,101355.31
2022-10-06T20:02:10.107Z,101353.47
2022-10-06T20:04:37.813Z,101357.94
2022-10-06T20:07:05.278Z,101353.56
2022-10-06T20:09:33.522Z,101346.31
2022-10-06T20:12:02.341Z,101353.56
2022-10-06T20:14:30.080Z,101347.66
2022-10-06T20:16:57.911Z,101346.25
2022-10-06T20:19:26.059Z,101345.41
2022-10-06T20:21:54.217Z,101361.75
2022-10-06T20:24:23.370Z,101344.50
2022-10-06T20:26:52.041Z,101358.34
2022-10-06T20:29:22.774Z,101354.53
2022-10-06T20:31:52.303Z,101350.88
2022-10-06T20:34:24.582Z,101357.63
2022-10-06T20:36:55.977Z,101356.81
2022-10-06T20:39:41.677Z,101357.09
2022-10-06T20:42:14.538Z,101358.19
2022-10-06T20:44:44.184Z,101354.25
2022-10-06T20:47:12.044Z,101353.75
2022-10-06T20:49:41.073Z,101354.59
2022-10-06T20:52:09.865Z,101352.78
2022-10-06T20:54:37.583Z,101355.44
2022-10-06T20:57:07.109Z,101364.94
2022-10-06T20:59:35.114Z,101359.94
2022-10-06T21:49:58.309Z,101338.94
2022-10-06T21:52:25.840Z,101335.44
2022-10-06T21:54:53.391Z,101330.66
2022-10-06T21:57:20.917Z,101322.56
2022-10-06T21:59:48.488Z,101322.41
2022-10-06T22:02:16.044Z,101317.25
2022-10-06T22:04:43.835Z,101317.09
2022-10-06T22:07:12.748Z,101317.38
2022-10-06T22:09:40.297Z,101308.41
2022-10-06T22:12:07.849Z,101307.28
2022-10-06T22:14:35.355Z,101310.97
2022-10-06T22:17:04.791Z,101299.88
2022-10-06T22:19:32.303Z,101305.88
2022-10-06T22:21:59.889Z,101306.31
2022-10-06T22:24:29.144Z,101305.72
2022-10-06T22:26:58.674Z,101305.88
2022-10-06T22:29:26.184Z,101297.78
2022-10-06T22:31:53.756Z,101307.16
2022-10-06T22:34:21.802Z,101302.09
2022-10-06T22:36:49.435Z,101295.25
2022-10-06T22:39:17.751Z,101298.88
2022-10-06T22:41:46.689Z,101300.44
2022-10-06T22:44:14.327Z,101290.22
2022-10-06T22:46:42.171Z,101285.03
2022-10-06T22:49:09.767Z,101280.41
2022-10-06T22:51:37.333Z,101291.09
2022-10-06T22:54:05.238Z,101286.75
2022-10-06T22:56:33.795Z,101285.91
2022-10-06T22:59:03.086Z,101265.31
2022-10-06T23:01:30.846Z,101268.78
2022-10-06T23:03:58.731Z,101273.13
2022-10-06T23:06:26.684Z,101267.81
2022-10-06T23:08:54.238Z,101260.28
2022-10-06T23:11:22.728Z,101271.72
2022-10-06T23:13:50.870Z,101259.97
2022-10-06T23:16:20.574Z,101262.22
2022-10-06T23:18:49.163Z,101267.97
2022-10-06T23:21:21.656Z,101255.06
2022-10-06T23:23:50.849Z,101255.78
2022-10-06T23:26:19.748Z,101250.59
2022-10-06T23:28:50.978Z,101241.94
2022-10-06T23:31:19.933Z,101243.75
2022-10-06T23:33:47.608Z,101237.44
2022-10-06T23:36:15.246Z,101230.47
2022-10-06T23:38:44.413Z,101240.13
2022-10-06T23:41:12.148Z,101236.75
2022-10-06T23:43:39.659Z,101236.63
2022-10-06T23:46:07.451Z,101236.19
2022-10-06T23:48:37.303Z,101234.38
2022-10-06T23:51:06.912Z,101232.56
2022-10-06T23:53:35.176Z,101225.28
2022-10-06T23:56:02.835Z,101224.03
2022-10-06T23:58:30.388Z,101230.16
